Terminal Aerodrome Forecast
Issued by NWS

Home | Current Version | Previous Version | Text Only | Print | Product List | Glossary On
Versions: 1 2 3 4 5 6 7 8 9 10 11 12 13 14 15 16 17 18 19 20 21 22 23 24 25 26 27
623
FTUS46 KSEW 231549 AAB
TAFSEA
TAF AMD
KSEA 231549Z 2316/2418 17003KT P6SM VCSH SCT008 BKN015 BKN070
     FM231800 VRB03KT P6SM SCT015 BKN030
     FM232100 28004KT P6SM SCT030
     FM240300 VRB03KT P6SM SCT030 BKN045
     FM241200 17006KT P6SM SCT012 BKN020 OVC035
      TEMPO 2413/2417 4SM -SHSN SCT004 BKN008 OVC012=

USA.gov is the U.S. government's official web portal to all federal, state and local government web resources and services.